• Join FlightAware (Why Join?)
  • Login
  • US Flag 
12:47AM EDT


 

Airport Tracker/Info


-or-


 

Live Flight TrackerFlight Track Log ✈ SWA580 ✈ 06-05-2012 ✈ KSFO - KLAS

Flight Track Log - Related Links

Times and Time Zones

All times are in EDT time to prevent confusion due to time zone crossing. See the SWA580 flight status page for this flight to view local times or setup timezone preferences in your user account.

Time Position Orientation Groundspeed Altitude Reporting Facility
EDT Latitude Longitude Course Direction KTS MPH feet Rate Location/Type
12:47AM 37.6333 -122.3667 157° South 147 169 1,300  Level Northern Cal TRACON
12:52AM 37.4678 -122.2792 104° East 334 384 19,000 3,120 Climbing Oakland Center
12:53AM 37.4400 -122.1428 106° East 354 407 20,600 2,400 Climbing Oakland Center
12:54AM 37.4081 -122.0036 106° East 383 441 23,900 3,060 Climbing Oakland Center
12:55AM 37.3736 -121.8569 106° East 416 479 26,700 2,940 Climbing Oakland Center
12:56AM 37.3331 -121.6839 106° East 453 521 29,800 2,100 Climbing Oakland Center
12:57AM 37.3006 -121.5375 108° East 458 527 30,900 1,080 Climbing Oakland Center
12:58AM 37.2636 -121.3911 106° East 458 527 32,000 1,020 Climbing Oakland Center
12:59AM 37.2306 -121.2447 106° East 446 513 33,000 480 Climbing Oakland Center
01:00AM 37.1975 -121.1014 106° East 436 502 33,000  Level Oakland Center
01:01AM 37.1642 -120.9553 107° East 431 496 33,000  Level Oakland Center
01:02AM 37.1286 -120.8094 107° East 431 496 33,000  Level Oakland Center
01:03AM 37.0928 -120.6611 99° East 436 502 33,000  Level Oakland Center
01:04AM 37.0736 -120.5075 95° East 436 502 33,000  Level Oakland Center
01:05AM 37.0625 -120.3567 92° East 436 502 33,000  Level Oakland Center
01:06AM 37.0572 -120.2006 94° East 436 502 33,000  Level Oakland Center
01:07AM 37.0481 -120.0550 95° East 435 501 33,000  Level Oakland Center
01:08AM 37.0383 -119.9042 94° East 435 501 33,000  Level Oakland Center
01:09AM 37.0306 -119.7481 95° East 440 506 33,000  Level Oakland Center
01:10AM 37.0183 -119.5897 95° East 447 514 33,000  Level Oakland Center
01:11AM 37.0081 -119.4364 95° East 447 514 33,000 -300 Level Oakland Center
01:22AM 36.8889 -117.7906 112° Southeast 429 494 29,500 -300 Descending Los Angeles Center
01:25AM 36.7481 -117.3572 115° Southeast 446 513 29,000 -180 Descending Los Angeles Center
01:26AM 36.6992 -117.2244 115° Southeast 434 499 29,000  Level Los Angeles Center
01:27AM 36.6461 -117.0839 115° Southeast 434 499 29,000  Level Los Angeles Center
01:28AM 36.5950 -116.9464 116° Southeast 434 499 29,000  Level Los Angeles Center
01:29AM 36.5500 -116.8294 115° Southeast 432 497 29,000  Level Los Angeles Center
01:30AM 36.4881 -116.6611 115° Southeast 447 514 29,000 -540 Level Los Angeles Center
01:31AM 36.4344 -116.5189 115° Southeast 453 521 28,000 -2,040 Descending Los Angeles Center
01:32AM 36.3828 -116.3817 116° Southeast 445 512 25,000 -3,000 Descending Los Angeles Center
01:33AM 36.3328 -116.2528 115° Southeast 431 496 22,100 -2,820 Descending Los Angeles Center
01:34AM 36.2911 -116.1444 116° Southeast 398 458 19,600 -2,760 Descending Los Angeles Center
01:34AM 36.2558 -116.0544 114° Southeast 383 441 17,600 -1,980 Descending Los Angeles Center
01:35AM 36.2161 -115.9461 113° Southeast 349 402 16,300 -840 Descending Los Angeles Center
01:36AM 36.1803 -115.8433 111° Southeast 324 373 16,000 -180 Descending Los Angeles Center
01:37AM 36.1444 -115.7303 111° Southeast 313 360 16,000 -600 Level Los Angeles Center
01:39AM 36.1108 -115.6200 115° Southeast 310 357 14,700 -1,380 Descending Los Angeles Center
01:39AM 36.0833 -115.5456 110° East 302 348 13,400 -1,680 Descending Los Angeles Center
01:41AM 36.0494 -115.4278 106° East 310 357 11,400 -1,080 Descending Los Angeles Center
01:42AM 36.0281 -115.3331 97° East 298 343 11,000 -960 Descending Los Angeles Center
01:42AM 36.0211 -115.2586 95° East 270 311 9,800 -1,620 Descending Los Angeles Center
01:43AM 36.0142 -115.1661 68° East 266 306 8,200 -1,380 Descending Los Angeles Center
01:44AM 36.0386 -115.0914 21° North 237 273 7,000 -960 Descending Los Angeles Center
01:45AM 36.0928 -115.0650 358° North 206 237 6,300 -1,080 Descending Los Angeles Center
01:46AM 36.1386 -115.0669 276° West 190 219 4,900 -1,440 Descending Los Angeles Center
01:47AM 36.1433 -115.1261 209° Southwest 165 190 3,500 -1,320 Descending Los Angeles Center
01:48AM 36.1017 -115.1550 197° South 157 181 2,300 -600 Descending Los Angeles Center
01:50AM 36.0808 -115.1628 360° North 101 116 2,200 -60 Descending Los Angeles Center
01:51AM 36.0831 -115.1628 203° Southwest 53 61 2,200 -60 Level Los Angeles Center
01:52AM 36.0728 -115.1681 207° Southwest 36 41 2,100 13,380 Descending Los Angeles Center
01:53AM 36.0644 -115.1733 89° East 36 41 29,000 26,880 Climbing Los Angeles Center
02:00AM 36.0667 -114.9127 272° West  Level FlightAware Approximate
02:01AM 36.0703 -115.0536 277° West  Level FlightAware Approximate
02:02AM 36.0843 -115.1957 116° Southeast  Level Estimated
02:03AM 36.0667 -115.1500 352° North  Level FlightAware Approximate
02:04AM 36.1813 -115.1693 352° North  Level Estimated